Time;durP1;ratioP1;P1;durP2;ratioP2;P2;SDS_P1;SDS_P2;PMS_P1;PMS_P2;Temp;Humidity;BMP_temperature;BMP_pressure;BME280_temperature;BME280_humidity;BME280_pressure;Samples;Min_cycle;Max_cycle;Signal;HPM_P1;HPM_P2
2021/12/03 00:00:30;;;;;;;15.70;10.05;;;0.60;99.90;;;;;;5007409;28;20037;-64
2021/12/03 00:02:56;;;;;;;18.00;11.35;;;0.60;99.90;;;;;;5016768;28;20456;-64
2021/12/03 00:05:22;;;;;;;13.02;10.30;;;0.70;99.90;;;;;;5008623;28;20030;-64
2021/12/03 00:07:48;;;;;;;14.00;10.30;;;0.60;99.90;;;;;;5016218;28;20059;-64
2021/12/03 00:10:15;;;;;;;13.07;10.57;;;0.70;99.90;;;;;;5014231;28;20044;-63
2021/12/03 00:12:42;;;;;;;15.23;10.73;;;0.80;99.90;;;;;;5013304;28;20502;-64
2021/12/03 00:15:09;;;;;;;16.52;11.00;;;0.70;99.90;;;;;;5017060;28;20041;-64
2021/12/03 00:17:35;;;;;;;14.63;10.73;;;0.60;99.90;;;;;;5009680;28;20048;-63
2021/12/03 00:20:02;;;;;;;15.88;11.23;;;0.60;99.90;;;;;;5016405;28;20068;-63
2021/12/03 00:22:28;;;;;;;16.95;12.30;;;0.70;99.90;;;;;;5016665;28;20519;-63
2021/12/03 00:24:53;;;;;;;14.15;11.75;;;0.70;99.90;;;;;;5017843;28;20041;-63
2021/12/03 00:27:19;;;;;;;15.98;11.15;;;0.70;99.90;;;;;;5018427;28;20487;-63
2021/12/03 00:29:45;;;;;;;15.38;11.55;;;0.60;99.90;;;;;;5011734;28;20103;-64
2021/12/03 00:32:11;;;;;;;18.65;11.95;;;0.60;99.90;;;;;;5012221;28;20059;-63
2021/12/03 00:34:36;;;;;;;17.35;11.65;;;0.50;99.90;;;;;;5016852;28;20134;-64
2021/12/03 00:37:02;;;;;;;14.88;11.95;;;0.60;99.90;;;;;;5021333;28;20128;-63
2021/12/03 00:39:28;;;;;;;19.25;12.63;;;0.50;99.90;;;;;;5016305;28;20034;-64
2021/12/03 00:41:59;;;;;;;18.67;12.77;;;0.60;99.90;;;;;;5017295;28;20039;-62
2021/12/03 00:44:28;;;;;;;18.00;13.57;;;0.50;99.90;;;;;;5021672;28;20043;-63
2021/12/03 00:46:54;;;;;;;18.92;14.07;;;0.50;99.90;;;;;;5019007;28;20033;-63
2021/12/03 00:49:19;;;;;;;17.48;12.70;;;0.60;99.90;;;;;;5024656;28;20037;-63
2021/12/03 00:51:45;;;;;;;17.20;13.68;;;0.40;99.90;;;;;;5020464;28;20134;-60
2021/12/03 00:54:13;;;;;;;20.45;14.50;;;0.50;99.90;;;;;;5023566;28;20037;-61
2021/12/03 00:56:39;;;;;;;21.85;15.23;;;0.50;99.90;;;;;;5013886;28;20053;-61
2021/12/03 00:59:04;;;;;;;21.42;14.55;;;0.60;99.90;;;;;;5020977;28;20372;-61
2021/12/03 01:01:30;;;;;;;23.55;15.15;;;0.60;99.90;;;;;;5017473;28;20052;-61
2021/12/03 01:03:56;;;;;;;21.73;15.35;;;0.60;99.90;;;;;;5012675;28;20045;-61
2021/12/03 01:06:22;;;;;;;24.42;16.13;;;0.60;99.90;;;;;;5019869;28;20029;-60
2021/12/03 01:08:47;;;;;;;21.50;15.85;;;0.50;99.90;;;;;;5012359;28;20409;-60
2021/12/03 01:11:14;;;;;;;26.45;16.58;;;0.60;99.90;;;;;;5018436;28;20040;-61
2021/12/03 01:13:42;;;;;;;26.80;16.80;;;0.60;99.90;;;;;;5018600;28;20485;-60
2021/12/03 01:16:10;;;;;;;22.38;17.30;;;0.50;99.90;;;;;;5016569;28;20522;-61
2021/12/03 01:18:37;;;;;;;25.58;17.70;;;0.40;99.90;;;;;;5019819;28;20033;-61
2021/12/03 01:21:04;;;;;;;26.40;18.73;;;0.60;99.90;;;;;;5012840;28;20209;-59
2021/12/03 01:23:30;;;;;;;31.25;21.25;;;0.60;99.90;;;;;;5023249;28;20547;-60
2021/12/03 01:25:56;;;;;;;34.00;21.67;;;0.60;99.90;;;;;;5010125;28;20388;-63
2021/12/03 01:28:23;;;;;;;32.97;21.58;;;0.70;99.90;;;;;;5020151;28;20123;-62
2021/12/03 01:30:48;;;;;;;34.70;22.75;;;0.80;99.90;;;;;;5016149;28;20037;-62
2021/12/03 01:33:14;;;;;;;40.65;26.02;;;1.00;99.90;;;;;;5021342;28;20034;-62
2021/12/03 01:35:40;;;;;;;37.35;27.13;;;1.00;99.90;;;;;;5014079;28;20045;-63
2021/12/03 01:38:07;;;;;;;38.03;26.75;;;1.00;99.90;;;;;;5019444;28;20033;-64
2021/12/03 01:40:34;;;;;;;39.58;27.30;;;1.00;99.90;;;;;;5011712;28;20038;-64
2021/12/03 01:43:01;;;;;;;46.33;30.23;;;1.10;99.90;;;;;;5019013;28;20030;-61
2021/12/03 01:45:32;;;;;;;47.28;32.35;;;1.20;99.90;;;;;;5019072;28;20053;-61
2021/12/03 01:47:59;;;;;;;47.75;32.78;;;1.30;99.90;;;;;;5017950;28;20499;-60
2021/12/03 01:50:28;;;;;;;53.63;34.05;;;1.40;99.90;;;;;;5016381;28;20116;-60
2021/12/03 01:52:54;;;;;;;63.70;37.67;;;1.50;99.90;;;;;;5017401;28;20056;-60
2021/12/03 01:55:21;;;;;;;76.75;39.08;;;1.70;99.90;;;;;;5013344;28;20033;-61
2021/12/03 01:57:46;;;;;;;71.43;41.97;;;1.80;99.90;;;;;;5019019;28;20088;-61
2021/12/03 02:00:38;;;;;;;72.72;42.28;;;1.80;99.90;;;;;;5021372;28;20072;-61
2021/12/03 02:03:07;;;;;;;78.63;42.97;;;1.90;99.90;;;;;;5012369;28;20398;-62
2021/12/03 02:05:33;;;;;;;85.88;45.58;;;1.90;99.90;;;;;;5015655;28;20405;-61
2021/12/03 02:07:58;;;;;;;78.57;43.75;;;2.00;99.90;;;;;;5020627;28;20036;-62
2021/12/03 02:10:24;;;;;;;87.00;46.47;;;2.00;99.90;;;;;;5014291;28;20030;-62
2021/12/03 02:12:51;;;;;;;88.35;44.42;;;2.00;99.90;;;;;;5013448;28;20091;-62
2021/12/03 02:15:17;;;;;;;98.30;46.97;;;2.10;99.90;;;;;;5011772;28;20034;-61
2021/12/03 02:17:43;;;;;;;93.10;44.83;;;2.10;99.90;;;;;;5019822;28;20030;-61
2021/12/03 02:20:11;;;;;;;91.82;45.47;;;2.00;99.90;;;;;;5018123;28;20370;-62
2021/12/03 02:22:38;;;;;;;81.90;43.78;;;1.90;99.90;;;;;;5016188;28;20539;-63
2021/12/03 02:25:08;;;;;;;89.55;44.30;;;2.00;99.90;;;;;;5017568;28;20073;-62
2021/12/03 02:27:34;;;;;;;87.72;45.03;;;2.00;99.90;;;;;;5017170;28;20034;-62
2021/12/03 02:29:59;;;;;;;92.40;43.33;;;2.00;99.90;;;;;;5016918;28;20037;-63
2021/12/03 02:32:25;;;;;;;87.43;42.70;;;2.10;99.90;;;;;;5018026;28;20135;-63
2021/12/03 02:34:51;;;;;;;80.30;41.78;;;2.20;99.90;;;;;;5018302;28;20039;-62
2021/12/03 02:37:17;;;;;;;86.65;43.55;;;2.20;99.90;;;;;;5020203;28;20147;-63
2021/12/03 02:39:43;;;;;;;87.47;42.45;;;2.30;99.90;;;;;;5019592;28;20450;-63
2021/12/03 02:42:08;;;;;;;85.88;42.00;;;2.30;99.90;;;;;;5017071;28;20135;-63
2021/12/03 02:44:34;;;;;;;82.53;41.08;;;2.30;99.90;;;;;;5022478;28;20033;-63
2021/12/03 02:47:00;;;;;;;85.40;41.38;;;2.30;99.90;;;;;;5015163;28;20507;-63
2021/12/03 02:49:26;;;;;;;85.13;40.33;;;2.40;99.90;;;;;;5017418;28;20029;-63
2021/12/03 02:51:51;;;;;;;84.93;41.17;;;2.50;99.90;;;;;;5020582;28;20103;-63
2021/12/03 02:54:17;;;;;;;81.38;41.65;;;2.60;99.90;;;;;;5016973;28;20057;-62
2021/12/03 02:56:43;;;;;;;76.60;38.55;;;2.40;99.90;;;;;;5018885;28;20127;-62
2021/12/03 02:59:08;;;;;;;77.75;39.05;;;2.40;99.90;;;;;;5014830;28;20030;-63
2021/12/03 03:01:34;;;;;;;82.57;38.50;;;2.60;99.90;;;;;;5012029;28;20469;-63
2021/12/03 03:03:59;;;;;;;78.95;38.10;;;2.60;99.90;;;;;;5014803;28;20453;-63
2021/12/03 03:06:26;;;;;;;86.70;39.42;;;2.70;99.90;;;;;;5012356;28;20067;-63
2021/12/03 03:08:51;;;;;;;81.35;40.03;;;2.70;99.90;;;;;;5018916;28;20216;-63
2021/12/03 03:11:18;;;;;;;80.32;37.35;;;2.60;99.90;;;;;;5010792;28;20136;-63
2021/12/03 03:13:44;;;;;;;79.45;39.97;;;2.70;99.90;;;;;;5011871;28;20368;-63
2021/12/03 03:16:11;;;;;;;80.90;37.38;;;2.60;99.90;;;;;;5014473;28;20053;-63
2021/12/03 03:18:37;;;;;;;80.13;40.17;;;2.70;99.90;;;;;;5013603;28;20059;-63
2021/12/03 03:21:05;;;;;;;82.10;39.58;;;2.60;99.90;;;;;;5012192;28;20612;-63
2021/12/03 03:23:32;;;;;;;77.60;37.45;;;2.50;99.90;;;;;;5017068;28;20101;-62
2021/12/03 03:25:58;;;;;;;76.43;37.53;;;2.50;99.90;;;;;;5009643;28;20037;-63
2021/12/03 03:28:24;;;;;;;80.60;37.80;;;2.60;99.90;;;;;;5015360;28;20037;-62
2021/12/03 03:30:53;;;;;;;80.55;36.70;;;2.70;99.90;;;;;;5017625;28;20103;-63
2021/12/03 03:33:20;;;;;;;79.22;36.20;;;2.70;99.90;;;;;;5018068;28;20120;-62
2021/12/03 03:35:47;;;;;;;80.13;36.60;;;2.50;99.90;;;;;;5016935;28;20041;-62
2021/12/03 03:38:13;;;;;;;74.85;34.78;;;2.50;99.90;;;;;;5016782;28;20037;-62
2021/12/03 03:40:44;;;;;;;82.30;34.90;;;2.50;99.90;;;;;;5017201;28;20057;-61
2021/12/03 03:43:10;;;;;;;72.00;34.70;;;2.40;99.90;;;;;;5015678;28;20045;-61
2021/12/03 03:45:37;;;;;;;71.00;33.95;;;2.40;99.90;;;;;;5017630;28;20410;-61
2021/12/03 03:48:04;;;;;;;76.57;34.83;;;2.40;99.90;;;;;;5018195;28;20041;-62
2021/12/03 03:50:30;;;;;;;69.65;32.78;;;2.50;99.90;;;;;;5018043;28;20347;-61
2021/12/03 03:52:57;;;;;;;71.53;32.58;;;2.50;99.90;;;;;;5018431;28;20130;-61
2021/12/03 03:55:24;;;;;;;68.13;31.85;;;2.50;99.90;;;;;;5015648;28;20048;-61
2021/12/03 03:57:52;;;;;;;68.45;31.45;;;2.60;99.90;;;;;;5011682;28;20072;-61
2021/12/03 04:00:21;;;;;;;66.28;31.45;;;2.70;99.90;;;;;;5015804;28;20034;-61
2021/12/03 04:02:47;;;;;;;66.47;31.88;;;2.60;99.90;;;;;;5011227;28;20603;-61
2021/12/03 04:05:13;;;;;;;66.00;31.20;;;2.60;99.90;;;;;;5010502;28;20057;-61
2021/12/03 04:07:40;;;;;;;69.95;31.42;;;2.70;99.90;;;;;;5014368;28;20120;-61
2021/12/03 04:10:06;;;;;;;69.55;31.20;;;2.70;99.90;;;;;;5011585;28;20048;-61
2021/12/03 04:12:33;;;;;;;64.20;31.33;;;2.70;99.90;;;;;;5014491;28;20045;-61
2021/12/03 04:14:59;;;;;;;70.97;31.60;;;2.80;99.90;;;;;;5014230;28;20038;-61
2021/12/03 04:17:25;;;;;;;61.45;30.63;;;2.80;99.90;;;;;;5013396;28;20044;-61
2021/12/03 04:19:50;;;;;;;65.78;31.23;;;2.70;99.90;;;;;;5016055;28;20047;-61
2021/12/03 04:22:18;;;;;;;59.10;30.50;;;2.80;99.90;;;;;;5010625;28;20179;-61
2021/12/03 04:24:44;;;;;;;59.90;29.50;;;2.80;99.90;;;;;;5014457;28;20034;-62
2021/12/03 04:27:10;;;;;;;63.53;29.05;;;2.80;99.90;;;;;;4999835;28;20050;-62
2021/12/03 04:29:36;;;;;;;61.28;29.88;;;2.80;99.90;;;;;;5014748;28;20106;-61
2021/12/03 04:32:03;;;;;;;60.13;27.88;;;2.90;99.90;;;;;;5020052;28;20113;-61
2021/12/03 04:34:28;;;;;;;58.15;28.83;;;2.80;99.90;;;;;;5015756;28;20038;-61
2021/12/03 04:36:54;;;;;;;50.42;28.70;;;2.80;99.90;;;;;;5015878;28;20052;-61
2021/12/03 04:39:20;;;;;;;53.55;29.15;;;2.90;99.90;;;;;;5016357;28;20049;-61
2021/12/03 04:41:45;;;;;;;57.17;29.45;;;2.90;99.90;;;;;;5014830;28;20111;-62
2021/12/03 04:44:11;;;;;;;60.05;30.58;;;3.00;99.90;;;;;;5017427;28;20029;-61
2021/12/03 04:46:37;;;;;;;56.70;30.30;;;3.10;99.90;;;;;;5010434;28;20033;-62
2021/12/03 04:49:03;;;;;;;50.90;28.42;;;3.00;99.90;;;;;;5013814;28;20120;-60
2021/12/03 04:51:28;;;;;;;54.25;28.80;;;3.10;99.90;;;;;;5014262;28;20507;-62
2021/12/03 04:53:54;;;;;;;51.25;28.30;;;3.10;99.90;;;;;;5015543;28;20034;-62
2021/12/03 04:56:20;;;;;;;50.85;28.85;;;3.00;99.90;;;;;;5014224;28;20057;-63
2021/12/03 04:58:45;;;;;;;51.25;28.92;;;2.90;99.90;;;;;;5012819;28;20036;-62
2021/12/03 05:01:11;;;;;;;52.65;27.15;;;2.80;99.90;;;;;;5014439;28;20041;-63
2021/12/03 05:03:37;;;;;;;48.67;27.38;;;2.90;99.90;;;;;;5015745;28;20448;-63
2021/12/03 05:06:04;;;;;;;48.63;27.42;;;2.80;99.90;;;;;;5007477;28;20071;-63
2021/12/03 05:08:30;;;;;;;45.28;26.88;;;2.90;99.90;;;;;;5018950;28;20135;-62
2021/12/03 05:10:57;;;;;;;50.70;27.42;;;2.90;99.90;;;;;;5017385;28;20033;-63
2021/12/03 05:13:26;;;;;;;55.20;30.10;;;2.90;99.90;;;;;;5013636;28;20065;-63
2021/12/03 05:15:52;;;;;;;60.95;30.17;;;3.00;99.90;;;;;;5016476;28;20025;-63
2021/12/03 05:18:21;;;;;;;58.38;30.38;;;2.90;99.90;;;;;;5018445;28;20468;-63
2021/12/03 05:20:49;;;;;;;61.10;31.17;;;3.00;99.90;;;;;;5013061;28;20048;-63
2021/12/03 05:23:15;;;;;;;61.67;30.05;;;3.00;99.90;;;;;;5025964;28;20497;-62
2021/12/03 05:25:42;;;;;;;67.18;29.88;;;3.00;99.90;;;;;;5016601;28;20068;-62
2021/12/03 05:28:08;;;;;;;61.83;30.83;;;3.00;99.90;;;;;;5017839;28;20651;-63
2021/12/03 05:30:34;;;;;;;57.70;30.10;;;3.10;99.90;;;;;;5014962;28;20037;-63
2021/12/03 05:33:00;;;;;;;55.67;29.65;;;3.10;99.90;;;;;;5018252;28;20045;-63
2021/12/03 05:35:26;;;;;;;57.97;30.65;;;3.00;99.90;;;;;;5014292;28;20029;-62
2021/12/03 05:37:53;;;;;;;63.65;31.70;;;2.90;99.90;;;;;;5015039;28;20184;-63
2021/12/03 05:40:19;;;;;;;57.60;30.15;;;3.00;99.90;;;;;;5016012;28;20052;-62
2021/12/03 05:42:46;;;;;;;60.20;31.00;;;3.10;99.90;;;;;;5013274;28;20117;-62
2021/12/03 05:45:14;;;;;;;56.90;30.38;;;3.20;99.90;;;;;;5018847;28;20068;-62
2021/12/03 05:47:40;;;;;;;62.88;31.35;;;3.10;99.90;;;;;;5017140;28;20369;-63
2021/12/03 05:50:09;;;;;;;61.78;31.02;;;3.10;99.90;;;;;;5021116;28;20102;-62
2021/12/03 05:52:35;;;;;;;59.95;28.80;;;3.10;99.90;;;;;;5013445;28;20038;-62
2021/12/03 05:55:01;;;;;;;58.50;29.80;;;3.10;99.90;;;;;;5016700;28;20419;-62
2021/12/03 05:57:26;;;;;;;63.35;30.17;;;3.10;99.90;;;;;;5011687;28;20109;-62
2021/12/03 05:59:52;;;;;;;59.33;30.02;;;3.10;99.90;;;;;;5020052;28;20049;-62
2021/12/03 06:02:18;;;;;;;57.03;30.33;;;3.10;99.90;;;;;;5009828;28;20052;-63
2021/12/03 06:04:43;;;;;;;61.67;31.73;;;3.10;99.90;;;;;;5018361;28;20088;-62
2021/12/03 06:07:09;;;;;;;61.90;30.35;;;3.20;99.90;;;;;;5016852;28;20112;-63
2021/12/03 06:09:35;;;;;;;57.00;28.90;;;3.20;99.90;;;;;;5016661;28;20034;-63
2021/12/03 06:12:01;;;;;;;65.18;32.20;;;3.40;99.90;;;;;;5013840;28;20037;-62
2021/12/03 06:14:28;;;;;;;65.32;31.63;;;3.50;99.90;;;;;;5014560;28;20057;-63
2021/12/03 06:16:55;;;;;;;61.00;31.58;;;3.40;99.90;;;;;;5014643;28;20040;-63
2021/12/03 06:19:20;;;;;;;67.32;31.77;;;3.30;99.90;;;;;;5015786;28;20045;-62
2021/12/03 06:21:46;;;;;;;64.97;31.23;;;3.30;99.90;;;;;;5012456;28;20466;-63
2021/12/03 06:24:12;;;;;;;61.35;30.77;;;3.30;99.90;;;;;;5018366;28;20037;-63
2021/12/03 06:26:38;;;;;;;57.00;30.90;;;3.40;99.90;;;;;;5016609;28;20037;-63
2021/12/03 06:29:04;;;;;;;65.85;32.95;;;3.50;99.90;;;;;;5015375;28;20035;-63
2021/12/03 06:31:29;;;;;;;69.97;32.63;;;3.50;99.90;;;;;;5011752;28;20049;-63
2021/12/03 06:33:55;;;;;;;64.55;31.85;;;3.40;99.90;;;;;;5013248;28;20033;-64
2021/12/03 06:36:20;;;;;;;62.80;30.65;;;3.50;99.90;;;;;;5017318;28;20041;-63
2021/12/03 06:38:46;;;;;;;60.22;31.42;;;3.50;99.90;;;;;;5017205;28;20033;-63
2021/12/03 06:41:12;;;;;;;64.43;29.90;;;3.50;99.90;;;;;;5016769;28;20072;-63
2021/12/03 06:43:37;;;;;;;64.15;29.08;;;3.50;99.90;;;;;;5013335;28;20765;-63
2021/12/03 06:46:04;;;;;;;58.88;30.05;;;3.40;99.90;;;;;;5015539;28;20184;-63
2021/12/03 06:48:29;;;;;;;57.63;29.95;;;3.40;99.90;;;;;;5020484;28;20501;-63
2021/12/03 06:50:55;;;;;;;62.17;29.10;;;3.40;99.90;;;;;;5012439;28;20129;-64
2021/12/03 06:53:24;;;;;;;57.58;27.70;;;3.50;99.90;;;;;;5019920;28;20072;-65
2021/12/03 06:55:57;;;;;;;57.10;27.63;;;3.40;99.90;;;;;;5016193;28;20123;-65
2021/12/03 06:58:23;;;;;;;55.85;26.92;;;3.40;99.90;;;;;;5012381;28;20048;-64
2021/12/03 07:00:52;;;;;;;54.90;26.45;;;3.50;99.90;;;;;;5016097;28;20528;-65
2021/12/03 07:03:19;;;;;;;53.05;26.77;;;3.50;99.90;;;;;;5009481;28;20057;-65
2021/12/03 07:05:44;;;;;;;59.08;27.52;;;3.60;99.90;;;;;;5015937;28;20045;-64
2021/12/03 07:08:10;;;;;;;57.90;25.88;;;3.70;99.90;;;;;;5016605;28;20607;-65
2021/12/03 07:10:36;;;;;;;55.42;25.20;;;3.70;99.90;;;;;;5011066;28;20044;-65
2021/12/03 07:13:02;;;;;;;46.95;25.00;;;3.70;99.90;;;;;;5017664;28;20042;-64
2021/12/03 07:15:28;;;;;;;53.67;24.38;;;3.70;99.90;;;;;;5009212;28;20065;-65
2021/12/03 07:17:53;;;;;;;46.60;23.27;;;3.70;99.90;;;;;;5018791;28;20033;-64
2021/12/03 07:20:22;;;;;;;54.25;23.05;;;3.60;99.90;;;;;;5006956;28;20565;-63
2021/12/03 07:22:48;;;;;;;40.17;20.88;;;3.60;99.90;;;;;;5014732;28;20109;-63
2021/12/03 07:25:14;;;;;;;40.03;19.10;;;3.60;99.90;;;;;;5010614;28;20041;-63
2021/12/03 07:27:40;;;;;;;39.08;19.60;;;3.60;99.90;;;;;;5013452;28;20086;-63
2021/12/03 07:30:08;;;;;;;38.58;18.25;;;3.60;99.90;;;;;;5011869;28;20945;-64
2021/12/03 07:32:34;;;;;;;34.35;17.38;;;3.60;99.90;;;;;;5009755;28;20088;-63
2021/12/03 07:35:00;;;;;;;36.72;18.25;;;3.40;99.90;;;;;;5009416;28;20030;-64
2021/12/03 07:37:26;;;;;;;36.03;16.75;;;3.50;99.90;;;;;;5012619;28;20041;-64
2021/12/03 07:39:52;;;;;;;35.65;17.20;;;3.60;99.90;;;;;;5013344;28;20048;-63
2021/12/03 07:42:18;;;;;;;35.08;14.98;;;3.70;99.90;;;;;;5015047;28;20503;-63
2021/12/03 07:44:44;;;;;;;37.75;16.02;;;3.60;99.90;;;;;;5012850;28;20037;-64
2021/12/03 07:47:09;;;;;;;38.55;15.43;;;3.60;99.90;;;;;;5011153;28;20646;-63
2021/12/03 07:49:36;;;;;;;34.08;15.25;;;3.60;99.90;;;;;;5016857;28;20044;-63
2021/12/03 07:52:03;;;;;;;38.75;15.70;;;3.60;99.90;;;;;;5014446;28;20323;-63
2021/12/03 07:54:28;;;;;;;38.45;15.45;;;3.50;99.90;;;;;;5011403;28;20121;-63
2021/12/03 07:56:54;;;;;;;28.67;14.20;;;3.50;99.90;;;;;;5014020;28;20702;-63
2021/12/03 07:59:20;;;;;;;27.58;14.30;;;3.50;99.90;;;;;;5016197;28;20026;-63
2021/12/03 08:01:46;;;;;;;32.53;13.32;;;3.60;99.90;;;;;;5011229;28;20465;-63
2021/12/03 08:04:13;;;;;;;26.88;12.40;;;3.60;99.90;;;;;;5012133;28;20237;-63
2021/12/03 08:06:40;;;;;;;31.02;12.77;;;3.60;99.90;;;;;;5016270;28;20076;-63
2021/12/03 08:09:09;;;;;;;26.13;12.05;;;3.50;99.90;;;;;;5011503;28;20057;-63
2021/12/03 08:11:36;;;;;;;27.85;12.13;;;3.60;99.90;;;;;;5009301;28;20034;-65
2021/12/03 08:14:02;;;;;;;24.33;9.85;;;3.60;99.90;;;;;;5014766;28;20029;-64
2021/12/03 08:16:27;;;;;;;29.90;11.55;;;3.60;99.90;;;;;;5015679;28;20391;-64
2021/12/03 08:18:53;;;;;;;28.50;10.95;;;3.60;99.90;;;;;;5011076;28;20048;-64
2021/12/03 08:21:19;;;;;;;26.95;9.80;;;3.60;99.90;;;;;;5012075;28;20552;-64
2021/12/03 08:23:44;;;;;;;22.50;9.05;;;3.60;99.90;;;;;;5013000;28;20130;-64
2021/12/03 08:26:10;;;;;;;25.63;9.00;;;3.60;99.90;;;;;;5011140;28;20033;-63
2021/12/03 08:28:36;;;;;;;30.83;9.98;;;3.80;99.90;;;;;;5012019;28;20047;-64
2021/12/03 08:31:01;;;;;;;27.40;8.93;;;3.70;99.90;;;;;;5014418;28;20395;-63
2021/12/03 08:33:27;;;;;;;27.52;8.90;;;3.70;99.90;;;;;;5009523;28;20053;-64
2021/12/03 08:35:53;;;;;;;26.38;9.82;;;3.70;99.90;;;;;;5014728;28;20037;-64
2021/12/03 08:38:19;;;;;;;23.50;8.10;;;3.70;99.90;;;;;;5008916;28;20068;-63
2021/12/03 08:40:44;;;;;;;28.17;8.75;;;3.60;99.90;;;;;;5012432;28;20038;-64
2021/12/03 08:43:10;;;;;;;19.42;7.18;;;3.60;99.90;;;;;;5009679;28;20040;-64
2021/12/03 08:45:38;;;;;;;22.35;7.40;;;3.60;99.90;;;;;;5013092;28;20037;-63
2021/12/03 08:48:05;;;;;;;24.40;7.47;;;3.70;99.90;;;;;;5013764;28;20874;-63
2021/12/03 08:50:48;;;;;;;16.98;7.50;;;3.60;99.90;;;;;;5010501;28;20123;-66
2021/12/03 08:55:58;;;;;;;20.23;6.90;;;3.80;99.90;;;;;;5005145;28;20461;-66
2021/12/03 08:58:24;;;;;;;20.48;6.72;;;3.80;99.90;;;;;;5010702;28;20034;-66
2021/12/03 09:00:49;;;;;;;25.67;6.63;;;3.90;99.90;;;;;;5013928;28;20472;-66
2021/12/03 09:03:15;;;;;;;21.85;6.55;;;3.90;99.90;;;;;;5015347;28;20045;-66
2021/12/03 09:05:42;;;;;;;21.65;6.72;;;3.90;99.90;;;;;;5015782;28;20040;-66
2021/12/03 09:08:09;;;;;;;23.33;6.68;;;3.90;99.90;;;;;;5011882;28;20065;-66
2021/12/03 09:10:35;;;;;;;20.25;6.50;;;4.00;99.90;;;;;;5015837;28;20357;-66
2021/12/03 09:13:00;;;;;;;17.00;6.38;;;4.10;99.90;;;;;;5013791;28;20133;-66
2021/12/03 09:15:33;;;;;;;22.90;7.03;;;4.00;99.90;;;;;;5013832;28;20037;-66
2021/12/03 09:18:24;;;;;;;19.87;7.07;;;4.10;99.90;;;;;;5019077;28;20101;-66
2021/12/03 09:20:54;;;;;;;17.50;6.60;;;4.10;99.90;;;;;;5012505;28;20532;-66
2021/12/03 09:26:10;;;;;;;17.00;6.55;;;4.20;99.90;;;;;;5016037;28;20056;-66
2021/12/03 09:28:38;;;;;;;22.35;6.95;;;4.30;99.90;;;;;;5017634;28;20034;-67
2021/12/03 09:31:04;;;;;;;20.52;7.30;;;4.20;99.90;;;;;;5015661;28;20040;-66
2021/12/03 09:33:32;;;;;;;20.63;6.75;;;4.30;99.90;;;;;;5013008;28;20050;-66
2021/12/03 09:36:01;;;;;;;22.40;6.45;;;4.20;99.90;;;;;;5017091;28;20029;-66
2021/12/03 09:38:31;;;;;;;20.08;6.97;;;4.30;99.90;;;;;;5016460;28;20136;-66
2021/12/03 09:41:05;;;;;;;19.40;6.47;;;4.30;99.90;;;;;;5014209;28;20041;-66
2021/12/03 09:43:33;;;;;;;21.38;6.43;;;4.30;99.90;;;;;;5014837;28;20468;-66
2021/12/03 09:52:27;;;;;;;19.75;6.20;;;4.40;99.90;;;;;;5015751;28;20049;-66
2021/12/03 09:57:10;;;;;;;18.85;6.05;;;4.40;99.90;;;;;;5018375;28;20040;-66
2021/12/03 10:02:19;;;;;;;20.50;6.10;;;4.40;99.90;;;;;;5016984;28;20041;-66
2021/12/03 10:05:28;;;;;;;24.92;6.00;;;4.50;99.90;;;;;;5014484;28;20513;-66
2021/12/03 10:13:41;;;;;;;21.27;6.72;;;4.60;99.90;;;;;;5016611;28;20044;-66
2021/12/03 10:16:37;;;;;;;20.98;6.18;;;4.50;99.90;;;;;;5020247;28;20037;-66
2021/12/03 10:19:24;;;;;;;17.45;5.60;;;4.50;99.90;;;;;;5014724;28;20492;-66
2021/12/03 10:37:58;;;;;;;16.95;5.45;;;4.70;99.90;;;;;;5014721;28;20464;-66
2021/12/03 10:46:11;;;;;;;15.07;5.35;;;4.70;99.90;;;;;;5011941;28;20055;-66
2021/12/03 10:48:48;;;;;;;12.60;4.93;;;4.70;99.90;;;;;;5013399;28;20509;-66
2021/12/03 10:54:01;;;;;;;14.73;4.60;;;4.70;99.90;;;;;;5010705;28;20132;-66
2021/12/03 11:12:54;;;;;;;16.48;4.68;;;4.80;99.90;;;;;;5018253;28;20072;-66
2021/12/03 11:15:59;;;;;;;14.20;4.97;;;4.90;99.90;;;;;;5015603;28;20056;-66
2021/12/03 11:21:33;;;;;;;15.23;4.57;;;4.90;99.90;;;;;;5012777;28;20167;-66
2021/12/03 11:31:51;;;;;;;12.18;5.03;;;4.80;99.90;;;;;;5010855;28;20126;-66
2021/12/03 12:18:55;;;;;;;15.07;6.95;;;5.20;99.90;;;;;;5008980;28;20406;-66
2021/12/03 12:30:29;;;;;;;13.70;6.07;;;5.30;99.90;;;;;;5016517;28;20340;-66
2021/12/03 13:38:51;;;;;;;11.05;3.83;;;5.70;99.90;;;;;;5017406;28;20382;-66
2021/12/03 14:00:55;;;;;;;6.97;3.38;;;5.50;99.90;;;;;;5016963;28;20144;-67
2021/12/03 14:09:24;;;;;;;8.73;2.90;;;5.90;99.90;;;;;;5017848;28;20112;-66
2021/12/03 14:15:41;;;;;;;8.93;4.55;;;5.80;99.90;;;;;;5018731;28;20116;-67
2021/12/03 14:19:07;;;;;;;9.30;3.53;;;5.70;99.90;;;;;;5017627;28;20061;-67
2021/12/03 14:35:20;;;;;;;16.75;8.10;;;5.40;99.90;;;;;;5017545;28;20402;-67
2021/12/03 14:36:59;;;;;;;12.77;3.78;;;5.40;99.90;;;;;;5014612;28;20481;-65
2021/12/03 14:40:11;;;;;;;9.82;4.13;;;5.50;99.90;;;;;;5016229;28;20035;-65
2021/12/03 14:42:32;;;;;;;8.82;4.10;;;5.40;99.90;;;;;;5016629;28;20464;-65
2021/12/03 14:45:14;;;;;;;12.10;5.75;;;5.40;99.90;;;;;;5020807;28;20041;-65
2021/12/03 14:47:53;;;;;;;13.27;5.88;;;5.30;99.90;;;;;;5014151;28;20052;-65
2021/12/03 14:50:38;;;;;;;8.40;4.82;;;5.30;99.90;;;;;;5018487;28;20569;-65
2021/12/03 14:55:37;;;;;;;;;;;5.20;99.90;;;;;;5019558;28;20042;-65
2021/12/03 14:58:15;;;;;;;17.65;6.60;;;5.30;99.90;;;;;;5014425;28;19932;-66
2021/12/03 15:03:32;;;;;;;13.63;5.93;;;5.10;99.90;;;;;;5012968;28;20088;-65
2021/12/03 15:06:19;;;;;;;15.75;6.57;;;5.10;99.90;;;;;;5018313;28;20053;-65
2021/12/03 15:08:56;;;;;;;10.95;5.93;;;5.10;99.90;;;;;;5020591;28;20026;-65
2021/12/03 15:27:47;;;;;;;8.73;3.45;;;5.20;99.90;;;;;;5015109;28;20037;-65
2021/12/03 16:04:22;;;;;;;7.97;3.90;;;5.30;99.90;;;;;;5012877;28;20090;-65
2021/12/03 16:12:35;;;;;;;9.00;3.78;;;5.20;99.90;;;;;;5012058;28;20528;-65
2021/12/03 16:17:51;;;;;;;9.52;3.55;;;5.10;99.90;;;;;;5011523;28;20122;-65
2021/12/03 16:20:32;;;;;;;8.25;3.90;;;5.10;99.90;;;;;;5016433;28;20196;-65
2021/12/03 16:45:14;;;;;;;8.70;3.97;;;5.20;99.90;;;;;;5011373;28;20127;-66
2021/12/03 16:48:13;;;;;;;9.55;3.97;;;5.20;99.90;;;;;;5014387;28;20195;-66
2021/12/03 16:53:23;;;;;;;5.75;3.83;;;5.10;99.90;;;;;;5013135;28;20060;-66
2021/12/03 16:56:01;;;;;;;10.95;3.90;;;5.00;99.90;;;;;;5016764;28;20038;-66
2021/12/03 16:58:28;;;;;;;7.50;4.00;;;5.00;99.90;;;;;;5011297;28;20397;-66
2021/12/03 17:01:04;;;;;;;7.40;4.38;;;5.00;99.90;;;;;;5011520;28;20037;-66
2021/12/03 17:03:40;;;;;;;8.05;4.35;;;5.10;99.90;;;;;;5011846;28;20053;-66
2021/12/03 18:01:00;;;;;;;5.63;3.15;;;4.90;99.90;;;;;;5014575;28;20041;-63
2021/12/03 18:46:43;;;;;;;7.40;4.75;;;4.80;99.90;;;;;;5002116;28;20145;-63
2021/12/03 18:56:53;;;;;;;4.70;3.55;;;4.90;99.90;;;;;;5016049;28;20338;-64
2021/12/03 18:59:19;;;;;;;5.70;3.95;;;4.80;99.90;;;;;;5015807;28;20418;-63
2021/12/03 19:01:45;;;;;;;4.70;3.45;;;4.80;99.90;;;;;;5017503;28;21522;-64
2021/12/03 19:04:22;;;;;;;4.88;3.40;;;4.80;99.90;;;;;;5013167;28;20037;-64
2021/12/03 19:06:53;;;;;;;5.22;3.70;;;4.80;99.90;;;;;;5013458;28;20564;-64
2021/12/03 19:09:25;;;;;;;6.32;3.38;;;4.90;99.90;;;;;;5018975;28;20219;-64
2021/12/03 19:12:04;;;;;;;7.40;3.67;;;4.90;99.90;;;;;;5011254;28;20029;-64
2021/12/03 19:14:35;;;;;;;7.25;4.00;;;4.90;99.90;;;;;;5015773;28;20350;-63
2021/12/03 19:17:00;;;;;;;6.68;3.97;;;4.90;99.90;;;;;;5017187;28;20120;-63
2021/12/03 19:19:28;;;;;;;7.75;3.92;;;4.90;99.90;;;;;;5013364;28;20120;-63
2021/12/03 19:21:57;;;;;;;8.88;4.25;;;4.90;99.90;;;;;;5015691;28;20056;-63
2021/12/03 19:24:22;;;;;;;8.48;4.50;;;5.00;99.90;;;;;;5018030;28;20378;-63
2021/12/03 19:26:48;;;;;;;12.50;7.15;;;5.00;99.90;;;;;;5012471;28;20049;-63
2021/12/03 19:29:16;;;;;;;6.57;3.67;;;5.10;99.90;;;;;;5015583;28;20033;-63
2021/12/03 19:31:43;;;;;;;8.05;4.05;;;5.10;99.90;;;;;;5018204;28;20102;-63
2021/12/03 19:34:10;;;;;;;10.50;4.47;;;5.10;99.90;;;;;;5016305;28;20416;-63
2021/12/03 19:36:40;;;;;;;8.55;5.15;;;5.10;99.90;;;;;;5017373;28;20089;-63
2021/12/03 19:39:07;;;;;;;6.82;3.90;;;5.10;99.90;;;;;;5018015;28;20136;-63
2021/12/03 19:41:43;;;;;;;5.97;3.22;;;5.00;99.90;;;;;;5016491;28;20140;-63
2021/12/03 19:44:20;;;;;;;8.30;4.82;;;5.00;99.90;;;;;;5015880;28;20122;-63
2021/12/03 19:46:48;;;;;;;4.82;3.30;;;5.00;99.90;;;;;;5013592;28;20037;-63
2021/12/03 19:49:31;;;;;;;4.85;3.50;;;5.10;99.90;;;;;;5018182;28;20037;-63
2021/12/03 19:52:04;;;;;;;8.35;3.08;;;5.10;99.90;;;;;;5014669;28;20033;-64
2021/12/03 19:54:30;;;;;;;8.80;3.40;;;5.10;99.90;;;;;;5015268;28;20462;-63
2021/12/03 19:56:55;;;;;;;3.78;2.63;;;5.20;99.90;;;;;;5017277;28;20103;-63
2021/12/03 19:59:21;;;;;;;4.45;2.78;;;5.10;99.90;;;;;;5018000;28;20119;-63